createdAt,value
2019-04-07T00:02:19.982Z,1.47
2019-04-07T00:04:54.599Z,1.40
2019-04-07T00:07:27.516Z,0.90
2019-04-07T00:10:00.601Z,1.10
2019-04-07T00:12:33.409Z,1.00
2019-04-07T00:15:09.014Z,0.70
2019-04-07T00:17:42.047Z,0.80
2019-04-07T00:20:15.007Z,1.00
2019-04-07T00:22:47.593Z,0.87
2019-04-07T00:25:21.559Z,0.80
2019-04-07T00:27:55.837Z,0.87
2019-04-07T00:30:29.407Z,0.70
2019-04-07T00:33:03.595Z,0.83
2019-04-07T00:35:36.528Z,0.70
2019-04-07T00:38:09.544Z,0.70
2019-04-07T00:40:42.823Z,0.70
2019-04-07T00:43:18.780Z,0.60
2019-04-07T00:45:53.326Z,0.50
2019-04-07T00:48:26.084Z,1.20
2019-04-07T00:51:01.449Z,0.70
2019-04-07T00:53:33.246Z,0.67
2019-04-07T00:56:06.374Z,1.13
2019-04-07T00:58:39.151Z,0.83
2019-04-07T01:01:14.146Z,0.63
2019-04-07T01:03:46.842Z,0.90
2019-04-07T01:06:19.551Z,0.57
2019-04-07T01:08:53.684Z,1.97
2019-04-07T01:11:26.708Z,0.50
2019-04-07T01:14:01.588Z,0.63
2019-04-07T01:16:35.255Z,1.13
2019-04-07T01:19:08.827Z,0.70
2019-04-07T01:21:41.568Z,1.43
2019-04-07T01:24:15.410Z,0.70
2019-04-07T01:26:48.260Z,0.60
2019-04-07T01:29:21.111Z,0.77
2019-04-07T01:31:53.948Z,0.80
2019-04-07T01:34:27.280Z,0.87
2019-04-07T01:37:01.044Z,0.70
2019-04-07T01:39:34.853Z,0.77
2019-04-07T01:42:14.991Z,0.60
2019-04-07T01:44:49.723Z,0.60
2019-04-07T01:47:24.231Z,0.73
2019-04-07T01:50:02.117Z,0.60
2019-04-07T01:52:36.573Z,0.70
2019-04-07T01:55:12.862Z,0.60
2019-04-07T01:57:47.679Z,2.50
2019-04-07T02:00:26.554Z,0.90
2019-04-07T02:03:07.398Z,0.60
2019-04-07T02:06:01.637Z,0.90
2019-04-07T02:08:33.625Z,0.60
2019-04-07T02:11:11.349Z,0.90
2019-04-07T02:13:54.756Z,0.60
2019-04-07T02:16:31.230Z,0.80
2019-04-07T02:19:21.803Z,0.73
2019-04-07T02:21:56.440Z,0.60
2019-04-07T02:24:43.192Z,0.70
2019-04-07T02:27:24.023Z,0.60
2019-04-07T02:30:01.246Z,0.57
2019-04-07T02:32:54.494Z,0.70
2019-04-07T02:35:41.835Z,0.60
2019-04-07T02:38:25.414Z,0.63
2019-04-07T02:40:59.915Z,0.60
2019-04-07T02:43:34.201Z,0.60
2019-04-07T02:46:20.374Z,0.70
2019-04-07T02:49:04.119Z,0.67
2019-04-07T02:51:40.289Z,0.60
2019-04-07T02:54:20.765Z,0.60
2019-04-07T02:57:05.505Z,0.70
2019-04-07T02:59:43.014Z,0.60
2019-04-07T03:02:31.738Z,0.70
2019-04-07T03:05:15.720Z,0.60
2019-04-07T03:08:05.759Z,0.77
2019-04-07T03:10:44.205Z,0.70
2019-04-07T03:13:21.245Z,0.60
2019-04-07T03:15:56.701Z,0.70
2019-04-07T03:18:46.441Z,0.70
2019-04-07T03:21:24.751Z,0.50
2019-04-07T03:24:14.873Z,0.60
2019-04-07T03:26:59.425Z,0.70
2019-04-07T03:29:49.314Z,0.60
2019-04-07T03:32:45.639Z,0.60
2019-04-07T03:35:19.833Z,0.70
2019-04-07T03:38:09.249Z,0.60
2019-04-07T03:40:55.752Z,0.70
2019-04-07T03:43:42.708Z,0.80
2019-04-07T03:46:32.472Z,1.10
2019-04-07T03:49:07.253Z,0.80
2019-04-07T03:51:44.030Z,0.67
2019-04-07T03:54:24.297Z,0.70
2019-04-07T03:57:02.495Z,0.60
2019-04-07T03:59:36.501Z,0.80
2019-04-07T04:02:27.880Z,0.77
2019-04-07T04:05:05.346Z,0.77
2019-04-07T04:07:40.250Z,0.63
2019-04-07T04:10:14.827Z,1.03
2019-04-07T04:12:51.215Z,0.70
2019-04-07T04:15:26.282Z,0.70
2019-04-07T04:17:59.840Z,0.60
2019-04-07T04:20:34.671Z,0.63
2019-04-07T04:23:07.873Z,0.70
2019-04-07T04:25:41.003Z,2.20
2019-04-07T04:28:14.318Z,0.90
2019-04-07T04:30:48.352Z,0.73
2019-04-07T04:33:21.366Z,1.07
2019-04-07T04:35:55.904Z,0.60
2019-04-07T04:38:29.768Z,0.60
2019-04-07T04:41:04.821Z,0.80
2019-04-07T04:43:38.084Z,0.70
2019-04-07T04:46:12.174Z,1.83
2019-04-07T04:48:45.233Z,0.80
2019-04-07T04:51:19.727Z,0.60
2019-04-07T04:53:53.709Z,0.77
2019-04-07T04:56:27.066Z,0.70
2019-04-07T04:59:00.161Z,1.00
2019-04-07T05:01:34.470Z,0.77
2019-04-07T05:04:09.192Z,0.70
2019-04-07T05:06:43.405Z,0.70
2019-04-07T05:09:16.173Z,0.70
2019-04-07T05:11:49.645Z,0.70
2019-04-07T05:14:22.920Z,0.80
2019-04-07T05:16:56.848Z,0.90
2019-04-07T05:19:30.529Z,0.73
2019-04-07T05:22:03.983Z,0.70
2019-04-07T05:24:36.794Z,0.70
2019-04-07T05:27:10.675Z,0.60
2019-04-07T05:29:44.671Z,0.67
2019-04-07T05:32:17.933Z,0.83
2019-04-07T05:34:52.093Z,0.80
2019-04-07T05:37:25.326Z,0.90
2019-04-07T05:40:02.600Z,0.80
2019-04-07T05:42:34.291Z,0.87
2019-04-07T05:45:09.984Z,0.80
2019-04-07T05:47:47.308Z,0.60
2019-04-07T05:50:18.349Z,0.70
2019-04-07T05:52:51.496Z,0.70
2019-04-07T05:55:24.454Z,0.90
2019-04-07T05:57:57.571Z,0.80
2019-04-07T06:00:32.328Z,0.80
2019-04-07T06:03:08.246Z,0.80
2019-04-07T06:05:40.944Z,0.83
2019-04-07T06:08:24.793Z,0.80
2019-04-07T06:10:48.415Z,0.93
2019-04-07T06:13:21.354Z,0.97
2019-04-07T06:15:54.624Z,1.70
2019-04-07T06:18:31.971Z,0.80
2019-04-07T06:21:03.872Z,0.90
2019-04-07T06:23:37.460Z,1.00
2019-04-07T06:26:12.909Z,0.93
2019-04-07T06:28:51.206Z,1.20
2019-04-07T06:31:21.555Z,1.13
2019-04-07T06:33:55.184Z,1.27
2019-04-07T06:36:34.038Z,1.13
2019-04-07T06:39:08.270Z,0.90
2019-04-07T06:41:42.432Z,1.40
2019-04-07T06:44:19.412Z,1.10
2019-04-07T06:46:50.702Z,0.80
2019-04-07T06:49:29.569Z,1.20
2019-04-07T06:52:04.912Z,1.20
2019-04-07T06:54:52.029Z,1.10
2019-04-07T06:57:42.787Z,0.93
2019-04-07T07:00:29.985Z,0.90
2019-04-07T07:03:19.636Z,1.00
2019-04-07T07:06:04.751Z,0.97
2019-04-07T07:08:56.631Z,0.90
2019-04-07T07:11:40.692Z,0.70
2019-04-07T07:14:34.776Z,0.90
2019-04-07T07:17:17.479Z,1.27
2019-04-07T07:19:49.848Z,0.90
2019-04-07T07:22:40.194Z,1.93
2019-04-07T07:25:12.377Z,1.20
2019-04-07T07:27:46.138Z,1.00
2019-04-07T07:30:20.246Z,1.00
2019-04-07T07:32:54.189Z,0.90
2019-04-07T07:35:27.273Z,1.07
2019-04-07T07:38:00.522Z,1.10
2019-04-07T07:40:34.971Z,1.10
2019-04-07T07:43:09.750Z,0.97
2019-04-07T07:45:47.058Z,1.10
2019-04-07T07:48:17.562Z,1.10
2019-04-07T07:50:51.068Z,1.20
2019-04-07T07:53:28.097Z,1.50
2019-04-07T07:55:59.347Z,1.70
2019-04-07T07:58:33.632Z,1.40
2019-04-07T08:01:06.566Z,1.30
2019-04-07T08:03:41.257Z,1.03
2019-04-07T08:06:15.016Z,1.00
2019-04-07T08:08:48.537Z,1.17
2019-04-07T08:11:21.691Z,0.93
2019-04-07T08:13:55.362Z,1.20
2019-04-07T08:16:31.010Z,1.20
2019-04-07T08:19:03.877Z,1.50
2019-04-07T08:21:39.119Z,1.20
2019-04-07T08:24:16.427Z,1.00
2019-04-07T08:26:46.986Z,1.10
2019-04-07T08:29:20.476Z,1.00
2019-04-07T08:31:55.278Z,1.10
2019-04-07T08:34:30.560Z,1.10
2019-04-07T08:37:02.801Z,0.90
2019-04-07T08:39:38.736Z,1.10
2019-04-07T08:42:16.358Z,1.63
2019-04-07T08:44:47.369Z,1.27
2019-04-07T08:47:22.295Z,1.20
2019-04-07T08:49:57.222Z,1.27
2019-04-07T08:52:29.236Z,1.10
2019-04-07T08:55:03.046Z,1.67
2019-04-07T08:57:35.897Z,1.13
2019-04-07T09:00:15.935Z,1.00
2019-04-07T09:02:54.375Z,0.80
2019-04-07T09:05:26.853Z,1.30
2019-04-07T09:07:57.386Z,1.23
2019-04-07T09:10:40.979Z,1.20
2019-04-07T09:13:13.851Z,1.40
2019-04-07T09:15:52.186Z,1.90
2019-04-07T09:18:33.421Z,1.40
2019-04-07T09:21:19.939Z,1.60
2019-04-07T09:23:55.194Z,1.70
2019-04-07T09:26:49.040Z,1.50
2019-04-07T09:29:26.138Z,1.50
2019-04-07T09:32:02.191Z,1.37
2019-04-07T09:34:53.994Z,1.87
2019-04-07T09:37:27.239Z,1.70
2019-04-07T09:40:07.540Z,1.50
2019-04-07T09:42:44.777Z,1.50
2019-04-07T09:45:22.801Z,1.40
2019-04-07T09:47:59.965Z,1.40
2019-04-07T09:50:51.354Z,1.27
2019-04-07T09:53:25.917Z,1.53
2019-04-07T09:56:11.946Z,1.27
2019-04-07T09:59:04.749Z,1.20
2019-04-07T10:01:39.002Z,1.37
2019-04-07T10:04:19.320Z,0.90
2019-04-07T10:06:56.417Z,1.20
2019-04-07T10:09:36.828Z,1.70
2019-04-07T10:12:29.765Z,1.67
2019-04-07T10:15:19.830Z,1.33
2019-04-07T10:17:54.340Z,1.30
2019-04-07T10:20:35.911Z,0.90
2019-04-07T10:23:10.724Z,1.20
2019-04-07T10:25:51.902Z,1.20
2019-04-07T10:28:26.369Z,1.37
2019-04-07T10:31:15.101Z,1.30
2019-04-07T10:33:50.567Z,1.50
2019-04-07T10:36:26.954Z,0.90
2019-04-07T10:39:07.389Z,1.10
2019-04-07T10:42:01.369Z,1.20
2019-04-07T10:44:43.548Z,1.00
2019-04-07T10:47:33.714Z,1.10
2019-04-07T10:50:23.484Z,1.50
2019-04-07T10:53:06.366Z,1.10
2019-04-07T10:55:40.848Z,1.30
2019-04-07T10:58:25.516Z,1.33
2019-04-07T11:01:16.758Z,1.30
2019-04-07T11:04:07.245Z,1.80
2019-04-07T11:06:45.047Z,1.10
2019-04-07T11:09:37.324Z,0.90
2019-04-07T11:12:11.550Z,1.17
2019-04-07T11:14:49.038Z,0.93
2019-04-07T11:17:36.588Z,1.07
2019-04-07T11:20:11.592Z,0.90
2019-04-07T11:23:02.942Z,1.10
2019-04-07T11:25:43.866Z,1.40
2019-04-07T11:28:30.546Z,1.20
2019-04-07T11:31:14.617Z,1.10
2019-04-07T11:33:48.762Z,0.80
2019-04-07T11:36:39.609Z,0.90
2019-04-07T11:39:31.065Z,0.80
2019-04-07T11:42:23.988Z,1.30
2019-04-07T11:44:58.606Z,0.70
2019-04-07T11:47:45.906Z,1.00
2019-04-07T11:50:32.708Z,0.97
2019-04-07T11:53:13.437Z,0.80
2019-04-07T11:56:05.953Z,0.87
2019-04-07T11:58:38.657Z,0.90
2019-04-07T12:01:29.337Z,1.40
2019-04-07T12:04:14.985Z,0.90
2019-04-07T12:07:06.909Z,0.87
2019-04-07T12:09:59.630Z,1.40
2019-04-07T12:12:50.466Z,0.90
2019-04-07T12:15:28.914Z,0.80
2019-04-07T12:18:20.230Z,1.27
2019-04-07T12:20:54.321Z,0.90
2019-04-07T12:23:38.231Z,1.03
2019-04-07T12:26:28.771Z,1.10
2019-04-07T12:29:12.424Z,0.97
2019-04-07T12:31:53.224Z,0.80
2019-04-07T12:34:33.293Z,0.93
2019-04-07T12:37:17.550Z,0.77
2019-04-07T12:39:52.248Z,1.10
2019-04-07T12:42:29.903Z,0.93
2019-04-07T12:45:14.500Z,1.00
2019-04-07T12:48:01.445Z,0.90
2019-04-07T12:50:42.564Z,0.87
2019-04-07T12:53:32.123Z,0.90
2019-04-07T12:56:08.051Z,0.90
2019-04-07T12:58:59.098Z,0.77
2019-04-07T13:01:41.281Z,1.00
2019-04-07T13:04:17.867Z,1.00
2019-04-07T13:06:55.594Z,0.97
2019-04-07T13:09:32.340Z,1.27
2019-04-07T13:12:07.604Z,1.23
2019-04-07T13:14:52.066Z,0.93
2019-04-07T13:17:34.187Z,1.03
2019-04-07T13:20:08.138Z,1.40
2019-04-07T13:22:51.900Z,0.87
2019-04-07T13:25:32.569Z,1.20
2019-04-07T13:28:08.159Z,1.00
2019-04-07T13:30:59.181Z,1.03
2019-04-07T13:33:50.075Z,1.10
2019-04-07T13:36:25.523Z,0.80
2019-04-07T13:38:59.862Z,1.07
2019-04-07T13:41:47.068Z,1.20
2019-04-07T13:44:22.790Z,1.37
2019-04-07T13:47:08.338Z,1.00
2019-04-07T13:49:57.385Z,0.90
2019-04-07T13:52:33.193Z,1.03
2019-04-07T13:55:11.906Z,1.03
2019-04-07T13:57:46.069Z,1.60
2019-04-07T14:00:30.609Z,1.20
2019-04-07T14:03:07.727Z,1.20
2019-04-07T14:05:44.747Z,0.97
2019-04-07T14:08:32.108Z,0.90
2019-04-07T14:11:08.329Z,0.90
2019-04-07T14:14:00.206Z,1.07
2019-04-07T14:16:46.465Z,1.37
2019-04-07T14:19:21.081Z,1.23
2019-04-07T14:22:00.025Z,1.07
2019-04-07T14:24:37.241Z,1.20
2019-04-07T14:27:15.361Z,1.03
2019-04-07T14:29:55.920Z,1.47
2019-04-07T14:32:48.406Z,1.13
2019-04-07T14:35:34.271Z,1.53
2019-04-07T14:38:08.882Z,1.80
2019-04-07T14:40:55.154Z,1.00
2019-04-07T14:43:29.851Z,0.90
2019-04-07T14:46:04.380Z,0.90
2019-04-07T14:48:42.599Z,1.00
2019-04-07T14:51:29.490Z,1.10
2019-04-07T14:54:06.469Z,1.10
2019-04-07T14:56:40.822Z,0.70
2019-04-07T14:59:21.742Z,1.00
2019-04-07T15:02:00.075Z,1.20
2019-04-07T15:04:31.699Z,0.93
2019-04-07T15:07:22.086Z,0.90
2019-04-07T15:09:59.804Z,1.20
2019-04-07T15:12:50.203Z,1.20
2019-04-07T15:15:23.675Z,1.40
2019-04-07T15:17:57.576Z,1.10
2019-04-07T15:20:31.098Z,1.20
2019-04-07T15:23:04.383Z,1.13
2019-04-07T15:25:40.610Z,1.23
2019-04-07T15:28:11.759Z,1.40
2019-04-07T15:30:47.931Z,1.00
2019-04-07T15:33:18.667Z,1.20
2019-04-07T15:35:52.314Z,1.70
2019-04-07T15:38:27.200Z,1.20
2019-04-07T15:41:00.886Z,1.20
2019-04-07T15:43:34.974Z,1.07
2019-04-07T15:46:07.464Z,1.00
2019-04-07T15:48:42.052Z,1.10
2019-04-07T15:51:14.762Z,1.50
2019-04-07T15:54:08.098Z,1.00
2019-04-07T15:56:41.284Z,1.33
2019-04-07T15:59:17.635Z,1.13
2019-04-07T16:01:49.335Z,1.00
2019-04-07T16:04:27.830Z,1.03
2019-04-07T16:06:56.560Z,1.67
2019-04-07T16:09:38.387Z,0.93
2019-04-07T16:12:03.786Z,0.90
2019-04-07T16:14:37.384Z,1.10
2019-04-07T16:17:11.194Z,1.17
2019-04-07T16:19:50.496Z,1.00
2019-04-07T16:22:18.450Z,1.00
2019-04-07T16:24:54.832Z,1.13
2019-04-07T16:27:26.041Z,0.97
2019-04-07T16:29:59.171Z,1.20
2019-04-07T16:32:32.735Z,1.00
2019-04-07T16:35:05.856Z,1.47
2019-04-07T16:37:39.047Z,0.80
2019-04-07T16:40:12.996Z,1.00
2019-04-07T16:43:00.440Z,1.13
2019-04-07T16:45:21.206Z,1.10
2019-04-07T16:47:54.076Z,1.03
2019-04-07T16:50:28.204Z,1.10
2019-04-07T16:53:04.401Z,1.07
2019-04-07T16:55:37.196Z,1.00
2019-04-07T16:58:10.505Z,0.93
2019-04-07T17:00:45.245Z,0.90
2019-04-07T17:03:18.404Z,0.83
2019-04-07T17:05:55.742Z,1.30
2019-04-07T17:08:26.694Z,1.00
2019-04-07T17:11:04.153Z,1.10
2019-04-07T17:13:40.002Z,1.10
2019-04-07T17:16:10.145Z,1.00
2019-04-07T17:18:43.330Z,0.90
2019-04-07T17:21:18.333Z,1.00
2019-04-07T17:23:55.318Z,1.40
2019-04-07T17:26:26.420Z,0.90
2019-04-07T17:28:59.626Z,1.30
2019-04-07T17:31:34.557Z,0.83
2019-04-07T17:34:09.897Z,1.00
2019-04-07T17:36:41.691Z,1.07
2019-04-07T17:39:25.989Z,1.07
2019-04-07T17:42:00.381Z,1.10
2019-04-07T17:44:41.382Z,1.07
2019-04-07T17:47:29.384Z,0.80
2019-04-07T17:50:05.854Z,1.10
2019-04-07T17:52:40.856Z,0.97
2019-04-07T17:55:27.991Z,1.10
2019-04-07T17:58:03.091Z,1.63
2019-04-07T18:00:50.690Z,0.80
2019-04-07T18:03:36.588Z,1.10
2019-04-07T18:06:24.518Z,1.17
2019-04-07T18:09:10.246Z,1.00
2019-04-07T18:11:43.471Z,1.57
2019-04-07T18:14:18.093Z,1.87
2019-04-07T18:16:55.063Z,1.03
2019-04-07T18:19:36.096Z,1.00
2019-04-07T18:22:21.433Z,1.00
2019-04-07T18:24:54.838Z,1.10
2019-04-07T18:27:44.898Z,1.13
2019-04-07T18:30:33.412Z,1.17
2019-04-07T18:33:13.012Z,1.40
2019-04-07T18:35:46.935Z,1.03
2019-04-07T18:38:24.139Z,1.27
2019-04-07T18:41:10.482Z,1.57
2019-04-07T18:44:03.700Z,1.03
2019-04-07T18:46:39.935Z,1.00
2019-04-07T18:49:20.298Z,1.40
2019-04-07T18:52:11.114Z,0.90
2019-04-07T18:54:47.595Z,1.10
2019-04-07T18:57:24.958Z,1.10
2019-04-07T19:00:05.944Z,1.13
2019-04-07T19:02:43.908Z,1.17
2019-04-07T19:05:15.708Z,1.03
2019-04-07T19:07:50.038Z,1.80
2019-04-07T19:10:25.550Z,2.10
2019-04-07T19:13:05.633Z,1.23
2019-04-07T19:15:45.378Z,1.30
2019-04-07T19:18:22.458Z,1.10
2019-04-07T19:20:56.626Z,1.37
2019-04-07T19:23:47.767Z,1.13
2019-04-07T19:26:31.551Z,1.43
2019-04-07T19:29:08.579Z,1.07
2019-04-07T19:31:51.736Z,1.40
2019-04-07T19:34:37.310Z,1.40
2019-04-07T19:37:18.462Z,1.47
2019-04-07T19:40:10.807Z,1.73
2019-04-07T19:42:48.205Z,1.47
2019-04-07T19:45:26.827Z,1.20
2019-04-07T19:48:01.928Z,1.23
2019-04-07T19:50:54.919Z,1.70
2019-04-07T19:53:33.174Z,1.93
2019-04-07T19:56:23.020Z,1.63
2019-04-07T19:59:00.422Z,1.77
2019-04-07T20:01:37.937Z,2.10
2019-04-07T20:04:28.710Z,1.93
2019-04-07T20:07:12.111Z,2.00
2019-04-07T20:09:48.331Z,2.10
2019-04-07T20:15:22.236Z,2.50
2019-04-07T20:18:04.875Z,2.40
2019-04-07T20:20:40.579Z,2.40
2019-04-07T20:23:31.858Z,2.50
2019-04-07T20:26:15.720Z,2.23
2019-04-07T20:28:49.885Z,2.00
2019-04-07T20:31:30.292Z,2.43
2019-04-07T20:34:11.815Z,2.10
2019-04-07T20:36:46.095Z,2.80
2019-04-07T20:39:33.840Z,2.47
2019-04-07T20:42:21.517Z,2.83
2019-04-07T20:45:13.244Z,1.80
2019-04-07T20:47:47.756Z,1.73
2019-04-07T20:50:43.481Z,1.73
2019-04-07T20:53:23.468Z,1.70
2019-04-07T20:56:11.551Z,1.50
2019-04-07T20:58:53.019Z,1.40
2019-04-07T21:01:22.181Z,1.33
2019-04-07T21:04:11.549Z,1.40
2019-04-07T21:06:49.588Z,1.10
2019-04-07T21:09:39.459Z,1.40
2019-04-07T21:12:15.159Z,1.30
2019-04-07T21:14:49.619Z,1.10
2019-04-07T21:17:29.380Z,1.20
2019-04-07T21:20:07.474Z,1.60
2019-04-07T21:22:43.981Z,1.30
2019-04-07T21:25:23.746Z,1.37
2019-04-07T21:27:56.703Z,1.23
2019-04-07T21:30:50.367Z,1.30
2019-04-07T21:33:25.600Z,1.10
2019-04-07T21:36:04.930Z,1.27
2019-04-07T21:38:37.926Z,1.10
2019-04-07T21:41:28.908Z,1.30
2019-04-07T21:44:09.214Z,1.20
2019-04-07T21:46:43.614Z,1.13
2019-04-07T21:49:17.600Z,1.30
2019-04-07T21:51:52.626Z,1.63
2019-04-07T21:54:27.039Z,1.10
2019-04-07T21:57:04.566Z,1.20
2019-04-07T21:59:50.767Z,1.40
2019-04-07T22:02:43.207Z,1.10
2019-04-07T22:05:19.808Z,0.90
2019-04-07T22:08:12.869Z,1.30
2019-04-07T22:10:41.531Z,1.17
2019-04-07T22:13:16.541Z,0.87
2019-04-07T22:15:56.270Z,1.00
2019-04-07T22:18:23.853Z,1.10
2019-04-07T22:20:57.096Z,0.87
2019-04-07T22:23:31.435Z,1.10
2019-04-07T22:26:09.513Z,1.07
2019-04-07T22:28:39.529Z,1.00
2019-04-07T22:31:14.619Z,1.03
2019-04-07T22:33:47.563Z,1.20
2019-04-07T22:36:21.459Z,1.20
2019-04-07T22:38:56.410Z,1.27
2019-04-07T22:41:28.199Z,1.13
2019-04-07T22:44:00.971Z,1.63
2019-04-07T22:46:34.109Z,1.20
2019-04-07T22:49:07.150Z,1.07
2019-04-07T22:51:42.932Z,1.30
2019-04-07T22:54:14.360Z,1.40
2019-04-07T22:56:47.474Z,1.10
2019-04-07T22:59:20.839Z,1.47
2019-04-07T23:01:54.007Z,1.27
2019-04-07T23:04:26.818Z,1.10
2019-04-07T23:07:00.822Z,1.40
2019-04-07T23:09:33.684Z,1.20
2019-04-07T23:12:06.553Z,1.30
2019-04-07T23:14:40.057Z,1.80
2019-04-07T23:17:14.152Z,1.50
2019-04-07T23:19:47.174Z,1.10
2019-04-07T23:22:20.106Z,1.53
2019-04-07T23:24:53.055Z,1.23
2019-04-07T23:27:26.456Z,1.30
2019-04-07T23:30:00.007Z,1.17
2019-04-07T23:32:33.011Z,1.80
2019-04-07T23:35:08.221Z,1.30
2019-04-07T23:37:41.124Z,1.77
2019-04-07T23:40:14.428Z,1.70
2019-04-07T23:42:47.454Z,1.10
2019-04-07T23:45:20.550Z,1.10
2019-04-07T23:47:53.392Z,1.00
2019-04-07T23:50:27.238Z,1.40
2019-04-07T23:53:01.199Z,1.30
2019-04-07T23:55:33.917Z,1.10
2019-04-07T23:58:06.990Z,1.30
